createdAt,value
2019-04-27T00:00:24.108Z,1011.57
2019-04-27T00:01:23.875Z,1011.53
2019-04-27T00:02:26.567Z,1011.56
2019-04-27T00:03:23.894Z,1011.57
2019-04-27T00:04:25.246Z,1011.58
2019-04-27T00:05:26.677Z,1011.53
2019-04-27T00:06:23.784Z,1011.57
2019-04-27T00:07:24.148Z,1011.56
2019-04-27T00:08:23.997Z,1011.57
2019-04-27T00:09:23.218Z,1011.55
2019-04-27T00:10:27.001Z,1011.56
2019-04-27T00:11:23.124Z,1011.56
2019-04-27T00:12:26.480Z,1011.54
2019-04-27T00:13:22.990Z,1011.53
2019-04-27T00:14:23.969Z,1011.55
2019-04-27T00:15:24.692Z,1011.53
2019-04-27T00:16:23.496Z,1011.53
2019-04-27T00:17:41.252Z,1011.51
2019-04-27T00:18:23.375Z,1011.53
2019-04-27T00:19:23.266Z,1011.49
2019-04-27T00:20:23.849Z,1011.51
2019-04-27T00:21:23.663Z,1011.51
2019-04-27T00:22:23.085Z,1011.49
2019-04-27T00:23:23.610Z,1011.42
2019-04-27T00:24:23.484Z,1011.43
2019-04-27T00:25:22.986Z,1011.40
2019-04-27T00:26:23.277Z,1011.40
2019-04-27T00:27:23.399Z,1011.45
2019-04-27T00:28:23.030Z,1011.41
2019-04-27T00:29:21.539Z,1011.44
2019-04-27T00:30:21.515Z,1011.43
2019-04-27T00:31:21.388Z,1011.39
2019-04-27T00:32:23.034Z,1011.38
2019-04-27T00:33:21.229Z,1011.35
2019-04-27T00:34:21.127Z,1011.34
2019-04-27T00:35:21.042Z,1011.32
2019-04-27T00:36:21.078Z,1011.28
2019-04-27T00:37:20.874Z,1011.32
2019-04-27T00:38:20.806Z,1011.25
2019-04-27T00:39:20.761Z,1011.22
2019-04-27T00:40:20.622Z,1011.22
2019-04-27T00:41:20.568Z,1011.23
2019-04-27T00:42:20.454Z,1011.16
2019-04-27T00:43:20.480Z,1011.19
2019-04-27T00:44:20.295Z,1011.15
2019-04-27T00:45:20.205Z,1011.19
2019-04-27T00:46:20.123Z,1011.16
2019-04-27T00:47:20.129Z,1011.14
2019-04-27T00:48:19.956Z,1011.17
2019-04-27T00:49:20.319Z,1011.12
2019-04-27T00:50:19.810Z,1011.12
2019-04-27T00:51:19.707Z,1011.12
2019-04-27T00:52:19.640Z,1011.13
2019-04-27T00:53:19.627Z,1011.18
2019-04-27T00:54:19.459Z,1011.20
2019-04-27T00:55:19.438Z,1011.21
2019-04-27T00:56:19.288Z,1011.18
2019-04-27T00:57:19.283Z,1011.18
2019-04-27T00:58:19.131Z,1011.19
2019-04-27T00:59:19.057Z,1011.15
2019-04-27T01:00:18.954Z,1011.16
2019-04-27T01:01:18.874Z,1011.10
2019-04-27T01:02:19.828Z,1011.10
2019-04-27T01:03:18.708Z,1011.12
2019-04-27T01:04:18.629Z,1011.07
2019-04-27T01:05:18.587Z,1011.03
2019-04-27T01:06:18.452Z,1011.06
2019-04-27T01:07:18.391Z,1011.06
2019-04-27T01:08:18.302Z,1011.12
2019-04-27T01:09:18.208Z,1011.08
2019-04-27T01:10:18.120Z,1011.03
2019-04-27T01:11:18.120Z,1011.04
2019-04-27T01:12:17.968Z,1011.04
2019-04-27T01:13:17.869Z,1011.01
2019-04-27T01:14:17.833Z,1011.02
2019-04-27T01:15:17.710Z,1011.00
2019-04-27T01:16:21.856Z,1010.96
2019-04-27T01:17:18.916Z,1010.99
2019-04-27T01:18:17.467Z,1010.96
2019-04-27T01:19:19.003Z,1010.92
2019-04-27T01:20:18.554Z,1010.94
2019-04-27T01:21:17.199Z,1010.92
2019-04-27T01:22:18.771Z,1010.89
2019-04-27T01:23:17.033Z,1010.84
2019-04-27T01:24:18.787Z,1010.87
2019-04-27T01:25:16.884Z,1010.85
2019-04-27T01:26:18.503Z,1010.83
2019-04-27T01:27:16.717Z,1010.81
2019-04-27T01:28:18.611Z,1010.80
2019-04-27T01:29:16.530Z,1010.77
2019-04-27T01:30:16.523Z,1010.77
2019-04-27T01:31:16.357Z,1010.78
2019-04-27T01:32:16.350Z,1010.74
2019-04-27T01:33:16.200Z,1010.75
2019-04-27T01:34:16.124Z,1010.76
2019-04-27T01:35:16.033Z,1010.75
2019-04-27T01:36:15.949Z,1010.75
2019-04-27T01:37:15.976Z,1010.73
2019-04-27T01:38:15.777Z,1010.75
2019-04-27T01:39:15.698Z,1010.69
2019-04-27T01:40:15.659Z,1010.74
2019-04-27T01:41:15.522Z,1010.72
2019-04-27T01:42:15.449Z,1010.72
2019-04-27T01:43:16.385Z,1010.73
2019-04-27T01:44:15.278Z,1010.69
2019-04-27T01:45:15.206Z,1010.68
2019-04-27T01:46:15.117Z,1010.67
2019-04-27T01:47:15.035Z,1010.69
2019-04-27T01:48:22.929Z,1010.69
2019-04-27T01:49:14.902Z,1010.68
2019-04-27T01:50:14.773Z,1010.65
2019-04-27T01:51:14.701Z,1010.65
2019-04-27T01:52:14.717Z,1010.64
2019-04-27T01:53:14.539Z,1010.66
2019-04-27T01:54:14.524Z,1010.66
2019-04-27T01:55:14.355Z,1010.62
2019-04-27T01:56:14.337Z,1010.64
2019-04-27T01:57:14.192Z,1010.61
2019-04-27T01:58:14.175Z,1010.57
2019-04-27T01:59:14.027Z,1010.55
2019-04-27T02:00:14.056Z,1010.57
2019-04-27T02:01:13.850Z,1010.57
2019-04-27T02:02:13.767Z,1010.58
2019-04-27T02:03:13.804Z,1010.60
2019-04-27T02:04:13.602Z,1010.59
2019-04-27T02:05:13.517Z,1010.57
2019-04-27T02:06:13.481Z,1010.54
2019-04-27T02:07:13.351Z,1010.55
2019-04-27T02:08:13.326Z,1010.60
2019-04-27T02:09:13.179Z,1010.55
2019-04-27T02:10:13.207Z,1010.57
2019-04-27T02:11:13.019Z,1010.55
2019-04-27T02:12:12.932Z,1010.57
2019-04-27T02:13:13.973Z,1010.58
2019-04-27T02:14:12.760Z,1010.55
2019-04-27T02:15:12.716Z,1010.59
2019-04-27T02:16:12.628Z,1010.58
2019-04-27T02:17:12.513Z,1010.57
2019-04-27T02:18:12.449Z,1010.55
2019-04-27T02:19:14.427Z,1010.51
2019-04-27T02:20:12.261Z,1010.49
2019-04-27T02:21:12.174Z,1010.54
2019-04-27T02:22:12.159Z,1010.49
2019-04-27T02:23:12.023Z,1010.48
2019-04-27T02:24:11.969Z,1010.47
2019-04-27T02:25:11.839Z,1010.50
2019-04-27T02:26:11.777Z,1010.51
2019-04-27T02:27:11.668Z,1010.50
2019-04-27T02:28:11.602Z,1010.49
2019-04-27T02:29:11.593Z,1010.44
2019-04-27T02:30:11.814Z,1010.43
2019-04-27T02:31:11.337Z,1010.42
2019-04-27T02:32:11.315Z,1010.40
2019-04-27T02:33:12.702Z,1010.39
2019-04-27T02:34:11.123Z,1010.36
2019-04-27T02:35:11.002Z,1010.37
2019-04-27T02:36:14.898Z,1010.36
2019-04-27T02:37:10.840Z,1010.34
2019-04-27T02:38:10.764Z,1010.31
2019-04-27T02:39:10.761Z,1010.33
2019-04-27T02:40:10.584Z,1010.28
2019-04-27T02:41:10.500Z,1010.28
2019-04-27T02:42:10.462Z,1010.28
2019-04-27T02:43:10.477Z,1010.30
2019-04-27T02:44:10.252Z,1010.25
2019-04-27T02:45:10.276Z,1010.25
2019-04-27T02:46:10.079Z,1010.18
2019-04-27T02:47:10.606Z,1010.18
2019-04-27T02:48:10.107Z,1010.23
2019-04-27T02:49:10.698Z,1010.21
2019-04-27T02:50:10.697Z,1010.21
2019-04-27T02:51:10.123Z,1010.17
2019-04-27T02:52:09.674Z,1010.19
2019-04-27T02:53:11.148Z,1010.20
2019-04-27T02:54:12.447Z,1010.20
2019-04-27T02:55:09.799Z,1010.13
2019-04-27T02:56:10.251Z,1010.16
2019-04-27T02:57:10.109Z,1010.15
2019-04-27T02:58:10.069Z,1010.19
2019-04-27T02:59:09.542Z,1010.12
2019-04-27T03:00:10.469Z,1010.12
2019-04-27T03:01:09.944Z,1010.11
2019-04-27T03:02:10.716Z,1010.11
2019-04-27T03:03:10.143Z,1010.07
2019-04-27T03:04:10.026Z,1010.10
2019-04-27T03:05:12.685Z,1010.04
2019-04-27T03:06:09.825Z,1010.05
2019-04-27T03:07:08.323Z,1010.09
2019-04-27T03:08:10.173Z,1010.04
2019-04-27T03:09:10.402Z,1010.03
2019-04-27T03:10:09.856Z,1010.05
2019-04-27T03:11:09.895Z,1010.04
2019-04-27T03:12:10.188Z,1010.00
2019-04-27T03:13:11.040Z,1009.98
2019-04-27T03:14:15.073Z,1009.99
2019-04-27T03:15:10.219Z,1009.94
2019-04-27T03:16:07.618Z,1009.93
2019-04-27T03:17:09.746Z,1009.90
2019-04-27T03:18:09.711Z,1009.93
2019-04-27T03:19:14.940Z,1009.93
2019-04-27T03:20:10.244Z,1009.91
2019-04-27T03:21:07.252Z,1009.94
2019-04-27T03:22:09.439Z,1009.92
2019-04-27T03:23:09.040Z,1009.89
2019-04-27T03:24:06.909Z,1009.87
2019-04-27T03:25:15.358Z,1009.89
2019-04-27T03:26:06.740Z,1009.88
2019-04-27T03:27:06.667Z,1009.90
2019-04-27T03:28:06.609Z,1009.83
2019-04-27T03:29:06.476Z,1009.83
2019-04-27T03:30:06.396Z,1009.82
2019-04-27T03:31:12.657Z,1009.75
2019-04-27T03:32:06.227Z,1009.80
2019-04-27T03:33:06.165Z,1009.77
2019-04-27T03:34:06.207Z,1009.77
2019-04-27T03:35:05.971Z,1009.78
2019-04-27T03:36:05.914Z,1009.78
2019-04-27T03:37:05.815Z,1009.72
2019-04-27T03:38:05.740Z,1009.73
2019-04-27T03:39:05.727Z,1009.66
2019-04-27T03:40:05.553Z,1009.67
2019-04-27T03:41:05.468Z,1009.64
2019-04-27T03:42:05.439Z,1009.63
2019-04-27T03:43:05.312Z,1009.63
2019-04-27T03:44:05.217Z,1009.61
2019-04-27T03:45:05.161Z,1009.59
2019-04-27T03:46:05.050Z,1009.57
2019-04-27T03:47:04.973Z,1009.52
2019-04-27T03:48:05.007Z,1009.51
2019-04-27T03:49:04.798Z,1009.48
2019-04-27T03:50:04.777Z,1009.52
2019-04-27T03:51:04.628Z,1009.50
2019-04-27T03:52:04.598Z,1009.47
2019-04-27T03:53:04.483Z,1009.47
2019-04-27T03:54:04.379Z,1009.51
2019-04-27T03:55:04.307Z,1009.50
2019-04-27T03:56:04.207Z,1009.52
2019-04-27T03:57:04.140Z,1009.50
2019-04-27T03:58:04.157Z,1009.49
2019-04-27T03:59:03.964Z,1009.52
2019-04-27T04:00:03.879Z,1009.50
2019-04-27T04:01:03.835Z,1009.47
2019-04-27T04:02:03.709Z,1009.48
2019-04-27T04:03:03.634Z,1009.45
2019-04-27T04:04:03.580Z,1009.42
2019-04-27T04:05:03.450Z,1009.41
2019-04-27T04:06:04.483Z,1009.37
2019-04-27T04:07:03.287Z,1009.38
2019-04-27T04:08:03.201Z,1009.38
2019-04-27T04:09:03.216Z,1009.39
2019-04-27T04:10:03.036Z,1009.39
2019-04-27T04:11:02.966Z,1009.37
2019-04-27T04:12:02.989Z,1009.34
2019-04-27T04:13:02.959Z,1009.38
2019-04-27T04:14:02.829Z,1009.33
2019-04-27T04:15:02.813Z,1009.38
2019-04-27T04:16:02.603Z,1009.37
2019-04-27T04:17:03.155Z,1009.35
2019-04-27T04:18:02.367Z,1009.37
2019-04-27T04:19:02.351Z,1009.34
2019-04-27T04:20:02.197Z,1009.31
2019-04-27T04:21:02.110Z,1009.26
2019-04-27T04:22:02.051Z,1009.27
2019-04-27T04:23:03.294Z,1009.24
2019-04-27T04:24:01.983Z,1009.23
2019-04-27T04:25:01.857Z,1009.18
2019-04-27T04:26:01.760Z,1009.24
2019-04-27T04:27:01.609Z,1009.23
2019-04-27T04:28:01.593Z,1009.18
2019-04-27T04:29:01.459Z,1009.17
2019-04-27T04:30:01.480Z,1009.21
2019-04-27T04:31:01.275Z,1009.26
2019-04-27T04:32:01.282Z,1009.25
2019-04-27T04:33:01.115Z,1009.27
2019-04-27T04:34:01.124Z,1009.28
2019-04-27T04:35:01.434Z,1009.30
2019-04-27T04:36:10.088Z,1009.34
2019-04-27T04:37:00.779Z,1009.33
2019-04-27T04:38:00.709Z,1009.33
2019-04-27T04:39:00.733Z,1009.33
2019-04-27T04:40:00.628Z,1009.38
2019-04-27T04:41:00.447Z,1009.37
2019-04-27T04:42:10.203Z,1009.36
2019-04-27T04:43:03.158Z,1009.40
2019-04-27T04:44:00.282Z,1009.38
2019-04-27T04:45:00.457Z,1009.39
2019-04-27T04:46:00.030Z,1009.41
2019-04-27T04:47:00.516Z,1009.43
2019-04-27T04:48:06.923Z,1009.44
2019-04-27T04:49:00.321Z,1009.44
2019-04-27T04:50:10.332Z,1009.43
2019-04-27T04:51:00.070Z,1009.47
2019-04-27T04:51:59.701Z,1009.42
2019-04-27T04:53:00.055Z,1009.44
2019-04-27T04:54:02.903Z,1009.51
2019-04-27T04:55:02.280Z,1009.52
2019-04-27T04:56:00.324Z,1009.51
2019-04-27T04:56:59.575Z,1009.58
2019-04-27T04:57:59.175Z,1009.53
2019-04-27T04:59:00.064Z,1009.55
2019-04-27T04:59:59.340Z,1009.58
2019-04-27T05:00:59.578Z,1009.59
2019-04-27T05:02:01.887Z,1009.62
2019-04-27T05:02:59.537Z,1009.56
2019-04-27T05:03:59.048Z,1009.61
2019-04-27T05:04:59.117Z,1009.57
2019-04-27T05:05:58.815Z,1009.58
2019-04-27T05:06:59.232Z,1009.63
2019-04-27T05:08:00.398Z,1009.64
2019-04-27T05:08:59.524Z,1009.64
2019-04-27T05:09:58.721Z,1009.63
2019-04-27T05:10:59.728Z,1009.63
2019-04-27T05:11:58.736Z,1009.67
2019-04-27T05:12:59.073Z,1009.62
2019-04-27T05:14:01.236Z,1009.62
2019-04-27T05:14:59.051Z,1009.60
2019-04-27T05:15:58.858Z,1009.56
2019-04-27T05:16:59.141Z,1009.55
2019-04-27T05:17:59.093Z,1009.51
2019-04-27T05:18:57.280Z,1009.50
2019-04-27T05:19:58.953Z,1009.53
2019-04-27T05:20:58.576Z,1009.53
2019-04-27T05:21:57.020Z,1009.56
2019-04-27T05:22:57.027Z,1009.60
2019-04-27T05:23:56.870Z,1009.57
2019-04-27T05:24:56.777Z,1009.59
2019-04-27T05:25:56.740Z,1009.57
2019-04-27T05:26:56.606Z,1009.57
2019-04-27T05:27:56.523Z,1009.55
2019-04-27T05:28:56.486Z,1009.54
2019-04-27T05:29:56.354Z,1009.59
2019-04-27T05:30:56.300Z,1009.58
2019-04-27T05:31:56.194Z,1009.63
2019-04-27T05:32:56.178Z,1009.59
2019-04-27T05:33:56.039Z,1009.61
2019-04-27T05:34:55.990Z,1009.61
2019-04-27T05:35:55.861Z,1009.60
2019-04-27T05:36:55.802Z,1009.62
2019-04-27T05:37:55.695Z,1009.57
2019-04-27T05:38:55.740Z,1009.56
2019-04-27T05:39:55.535Z,1009.56
2019-04-27T05:40:55.454Z,1009.56
2019-04-27T05:41:55.369Z,1009.57
2019-04-27T05:42:56.240Z,1009.55
2019-04-27T05:43:55.214Z,1009.54
2019-04-27T05:44:55.112Z,1009.56
2019-04-27T05:45:57.761Z,1009.57
2019-04-27T05:46:54.972Z,1009.56
2019-04-27T05:47:54.874Z,1009.50
2019-04-27T05:48:54.890Z,1009.50
2019-04-27T05:49:54.706Z,1009.45
2019-04-27T05:50:58.858Z,1009.44
2019-04-27T05:51:54.568Z,1009.34
2019-04-27T05:52:54.458Z,1009.33
2019-04-27T05:53:54.386Z,1009.37
2019-04-27T05:54:54.388Z,1009.33
2019-04-27T05:55:54.209Z,1009.33
2019-04-27T05:56:54.193Z,1009.33
2019-04-27T05:57:54.041Z,1009.34
2019-04-27T05:58:53.974Z,1009.35
2019-04-27T05:59:54.935Z,1009.38
2019-04-27T06:00:53.797Z,1009.33
2019-04-27T06:01:53.718Z,1009.33
2019-04-27T06:02:53.718Z,1009.29
2019-04-27T06:03:53.602Z,1009.32
2019-04-27T06:04:53.462Z,1009.31
2019-04-27T06:05:55.482Z,1009.30
2019-04-27T06:06:53.303Z,1009.32
2019-04-27T06:07:53.223Z,1009.28
2019-04-27T06:08:53.183Z,1009.30
2019-04-27T06:09:53.050Z,1009.28
2019-04-27T06:10:52.970Z,1009.28
2019-04-27T06:11:53.991Z,1009.27
2019-04-27T06:12:52.803Z,1009.25
2019-04-27T06:13:52.735Z,1009.25
2019-04-27T06:14:52.686Z,1009.22
2019-04-27T06:15:52.558Z,1009.24
2019-04-27T06:16:52.470Z,1009.27
2019-04-27T06:17:52.493Z,1009.26
2019-04-27T06:18:52.319Z,1009.25
2019-04-27T06:19:52.223Z,1009.26
2019-04-27T06:20:55.699Z,1009.28
2019-04-27T06:21:52.060Z,1009.25
2019-04-27T06:22:51.976Z,1009.24
2019-04-27T06:23:52.985Z,1009.25
2019-04-27T06:24:54.273Z,1009.27
2019-04-27T06:25:51.838Z,1009.25
2019-04-27T06:26:51.644Z,1009.24
2019-04-27T06:27:51.638Z,1009.27
2019-04-27T06:28:51.494Z,1009.23
2019-04-27T06:29:51.396Z,1009.20
2019-04-27T06:30:51.354Z,1009.20
2019-04-27T06:31:51.233Z,1009.17
2019-04-27T06:32:51.155Z,1009.16
2019-04-27T06:33:51.310Z,1009.13
2019-04-27T06:34:50.982Z,1009.13
2019-04-27T06:35:51.071Z,1009.12
2019-04-27T06:36:57.637Z,1009.14
2019-04-27T06:37:50.742Z,1009.15
2019-04-27T06:38:50.669Z,1009.16
2019-04-27T06:39:50.574Z,1009.17
2019-04-27T06:40:50.486Z,1009.15
2019-04-27T06:41:50.408Z,1009.15
2019-04-27T06:42:50.318Z,1009.18
2019-04-27T06:43:50.256Z,1009.19
2019-04-27T06:44:50.154Z,1009.13
2019-04-27T06:45:50.080Z,1009.21
2019-04-27T06:46:49.988Z,1009.20
2019-04-27T06:47:51.259Z,1009.20
2019-04-27T06:48:49.844Z,1009.21
2019-04-27T06:49:49.744Z,1009.22
2019-04-27T06:51:02.458Z,1009.23
2019-04-27T06:51:49.864Z,1009.24
2019-04-27T06:52:49.498Z,1009.26
2019-04-27T06:53:49.500Z,1009.20
2019-04-27T06:54:49.326Z,1009.20
2019-04-27T06:55:49.751Z,1009.22
2019-04-27T06:56:49.160Z,1009.24
2019-04-27T06:57:49.234Z,1009.17
2019-04-27T06:58:49.191Z,1009.20
2019-04-27T06:59:50.636Z,1009.17
2019-04-27T07:00:49.707Z,1009.18
2019-04-27T07:01:48.938Z,1009.26
2019-04-27T07:02:49.285Z,1009.27
2019-04-27T07:03:48.717Z,1009.31
2019-04-27T07:04:49.040Z,1009.26
2019-04-27T07:05:48.754Z,1009.23
2019-04-27T07:06:53.915Z,1009.18
2019-04-27T07:07:48.985Z,1009.20
2019-04-27T07:08:49.816Z,1009.24
2019-04-27T07:09:49.302Z,1009.27
2019-04-27T07:10:49.093Z,1009.28
2019-04-27T07:11:49.427Z,1009.28
2019-04-27T07:12:49.045Z,1009.28
2019-04-27T07:13:47.772Z,1009.29
2019-04-27T07:14:54.342Z,1009.26
2019-04-27T07:15:48.555Z,1009.28
2019-04-27T07:16:48.830Z,1009.22
2019-04-27T07:17:48.762Z,1009.21
2019-04-27T07:18:47.381Z,1009.21
2019-04-27T07:19:47.267Z,1009.17
2019-04-27T07:20:48.517Z,1009.13
2019-04-27T07:21:47.099Z,1009.12
2019-04-27T07:22:47.022Z,1009.13
2019-04-27T07:23:48.763Z,1009.09
2019-04-27T07:24:46.872Z,1009.09
2019-04-27T07:25:48.677Z,1009.11
2019-04-27T07:26:46.696Z,1009.14
2019-04-27T07:27:46.615Z,1009.16
2019-04-27T07:28:46.526Z,1009.07
2019-04-27T07:29:46.459Z,1009.14
2019-04-27T07:30:46.361Z,1009.19
2019-04-27T07:31:46.277Z,1009.25
2019-04-27T07:32:46.193Z,1009.22
2019-04-27T07:33:46.119Z,1009.17
2019-04-27T07:34:46.049Z,1009.21
2019-04-27T07:35:45.956Z,1009.23
2019-04-27T07:36:45.873Z,1009.22
2019-04-27T07:37:45.781Z,1009.21
2019-04-27T07:38:45.702Z,1009.24
2019-04-27T07:39:45.652Z,1009.27
2019-04-27T07:40:45.532Z,1009.20
2019-04-27T07:41:45.477Z,1009.21
2019-04-27T07:42:45.941Z,1009.22
2019-04-27T07:43:45.304Z,1009.25
2019-04-27T07:44:45.226Z,1009.25
2019-04-27T07:45:45.130Z,1009.24
2019-04-27T07:46:45.038Z,1009.20
2019-04-27T07:47:44.957Z,1009.15
2019-04-27T07:48:44.883Z,1009.22
2019-04-27T07:49:44.807Z,1009.20
2019-04-27T07:50:44.711Z,1009.19
2019-04-27T07:51:44.633Z,1009.19
2019-04-27T07:52:44.549Z,1009.23
2019-04-27T07:53:44.464Z,1009.27
2019-04-27T07:54:44.401Z,1009.25
2019-04-27T07:55:44.301Z,1009.25
2019-04-27T07:56:44.229Z,1009.23
2019-04-27T07:57:44.133Z,1009.19
2019-04-27T07:58:44.063Z,1009.19
2019-04-27T07:59:43.992Z,1009.18
2019-04-27T08:00:43.886Z,1009.15
2019-04-27T08:01:43.809Z,1009.18
2019-04-27T08:02:43.720Z,1009.14
2019-04-27T08:03:43.642Z,1009.11
2019-04-27T08:04:43.577Z,1009.07
2019-04-27T08:05:43.478Z,1009.10
2019-04-27T08:06:43.405Z,1009.11
2019-04-27T08:07:43.319Z,1009.04
2019-04-27T08:08:43.232Z,1009.05
2019-04-27T08:09:43.157Z,1009.10
2019-04-27T08:10:43.062Z,1009.12
2019-04-27T08:11:42.989Z,1009.09
2019-04-27T08:12:42.900Z,1009.07
2019-04-27T08:13:42.817Z,1009.03
2019-04-27T08:14:42.770Z,1008.96
2019-04-27T08:15:42.667Z,1008.94
2019-04-27T08:16:42.570Z,1008.93
2019-04-27T08:17:42.884Z,1008.90
2019-04-27T08:18:42.409Z,1008.88
2019-04-27T08:19:42.343Z,1008.87
2019-04-27T08:20:42.247Z,1008.88
2019-04-27T08:21:44.461Z,1008.89
2019-04-27T08:22:42.084Z,1008.86
2019-04-27T08:23:42.000Z,1008.85
2019-04-27T08:24:41.943Z,1008.83
2019-04-27T08:25:41.828Z,1008.83
2019-04-27T08:26:41.760Z,1008.82
2019-04-27T08:27:41.671Z,1008.87
2019-04-27T08:28:41.592Z,1008.85
2019-04-27T08:29:41.525Z,1008.90
2019-04-27T08:30:41.435Z,1008.84
2019-04-27T08:31:41.341Z,1008.83
2019-04-27T08:32:41.503Z,1008.92
2019-04-27T08:33:41.172Z,1008.95
2019-04-27T08:34:41.103Z,1008.96
2019-04-27T08:35:41.017Z,1009.03
2019-04-27T08:36:40.928Z,1009.18
2019-04-27T08:37:40.841Z,1009.14
2019-04-27T08:38:40.776Z,1009.21
2019-04-27T08:39:40.689Z,1009.10
2019-04-27T08:40:40.594Z,1009.13
2019-04-27T08:41:40.523Z,1009.19
2019-04-27T08:42:40.439Z,1009.24
2019-04-27T08:43:40.347Z,1009.22
2019-04-27T08:44:40.297Z,1009.32
2019-04-27T08:45:40.182Z,1009.18
2019-04-27T08:46:40.108Z,1009.21
2019-04-27T08:47:41.766Z,1009.10
2019-04-27T08:48:39.947Z,1009.05
2019-04-27T08:49:39.867Z,1009.07
2019-04-27T08:50:41.931Z,1009.10
2019-04-27T08:51:41.546Z,1009.00
2019-04-27T08:52:41.941Z,1008.92
2019-04-27T08:53:39.834Z,1008.85
2019-04-27T08:54:39.583Z,1008.85
2019-04-27T08:55:39.645Z,1008.96
2019-04-27T08:56:39.660Z,1008.91
2019-04-27T08:57:39.215Z,1009.05
2019-04-27T08:58:39.125Z,1008.94
2019-04-27T08:59:39.424Z,1008.84
2019-04-27T09:00:39.166Z,1008.92
2019-04-27T09:01:39.708Z,1008.88
2019-04-27T09:02:44.374Z,1008.88
2019-04-27T09:03:39.485Z,1008.91
2019-04-27T09:04:39.437Z,1008.82
2019-04-27T09:05:39.090Z,1008.70
2019-04-27T09:06:39.917Z,1008.72
2019-04-27T09:07:39.739Z,1008.81
2019-04-27T09:08:40.768Z,1008.86
2019-04-27T09:09:39.676Z,1008.90
2019-04-27T09:10:38.764Z,1008.96
2019-04-27T09:11:39.208Z,1008.82
2019-04-27T09:12:39.345Z,1008.81
2019-04-27T09:13:39.409Z,1008.75
2019-04-27T09:14:38.946Z,1008.75
2019-04-27T09:15:39.133Z,1008.70
2019-04-27T09:16:38.953Z,1008.64
2019-04-27T09:17:37.559Z,1008.69
2019-04-27T09:18:38.951Z,1008.59
2019-04-27T09:19:39.235Z,1008.63
2019-04-27T09:20:38.991Z,1008.66
2019-04-27T09:21:37.234Z,1008.73
2019-04-27T09:22:38.983Z,1008.82
2019-04-27T09:23:38.647Z,1008.92
2019-04-27T09:24:37.013Z,1008.81
2019-04-27T09:25:36.907Z,1008.75
2019-04-27T09:26:36.837Z,1008.66
2019-04-27T09:27:36.747Z,1008.62
2019-04-27T09:28:38.699Z,1008.63
2019-04-27T09:29:36.590Z,1008.58
2019-04-27T09:30:36.504Z,1008.47
2019-04-27T09:31:36.422Z,1008.31
2019-04-27T09:32:36.331Z,1008.29
2019-04-27T09:33:36.254Z,1008.33
2019-04-27T09:34:36.621Z,1008.35
2019-04-27T09:35:36.091Z,1008.36
2019-04-27T09:36:37.523Z,1008.46
2019-04-27T09:37:36.588Z,1008.43
2019-04-27T09:38:35.935Z,1008.44
2019-04-27T09:39:35.942Z,1008.47
2019-04-27T09:40:36.137Z,1008.64
2019-04-27T09:41:36.657Z,1008.69
2019-04-27T09:42:36.286Z,1008.78
2019-04-27T09:43:36.743Z,1008.82
2019-04-27T09:44:37.009Z,1008.82
2019-04-27T09:45:37.053Z,1008.94
2019-04-27T09:46:36.401Z,1008.95
2019-04-27T09:47:36.922Z,1008.94
2019-04-27T09:48:36.184Z,1009.04
2019-04-27T09:49:36.700Z,1009.09
2019-04-27T09:50:36.122Z,1009.05
2019-04-27T09:51:36.268Z,1009.17
2019-04-27T09:52:35.846Z,1009.23
2019-04-27T09:53:36.333Z,1009.24
2019-04-27T09:54:36.136Z,1009.28
2019-04-27T09:55:34.447Z,1009.28
2019-04-27T09:56:36.259Z,1009.23
2019-04-27T09:57:34.282Z,1009.20
2019-04-27T09:58:34.206Z,1009.18
2019-04-27T09:59:34.133Z,1009.12
2019-04-27T10:00:36.442Z,1009.10
2019-04-27T10:01:36.040Z,1009.10
2019-04-27T10:02:33.867Z,1009.12
2019-04-27T10:03:33.792Z,1009.15
2019-04-27T10:04:35.540Z,1009.16
2019-04-27T10:05:33.634Z,1009.22
2019-04-27T10:06:33.565Z,1009.24
2019-04-27T10:07:33.477Z,1009.19
2019-04-27T10:08:33.398Z,1009.24
2019-04-27T10:09:33.377Z,1009.21
2019-04-27T10:10:33.214Z,1009.16
2019-04-27T10:11:33.142Z,1009.22
2019-04-27T10:12:34.467Z,1009.21
2019-04-27T10:13:32.970Z,1009.22
2019-04-27T10:14:32.902Z,1009.22
2019-04-27T10:15:32.805Z,1009.18
2019-04-27T10:16:32.718Z,1009.19
2019-04-27T10:17:32.647Z,1009.20
2019-04-27T10:18:32.557Z,1009.26
2019-04-27T10:19:33.162Z,1009.30
2019-04-27T10:20:32.397Z,1009.44
2019-04-27T10:21:32.310Z,1009.49
2019-04-27T10:22:41.177Z,1009.55
2019-04-27T10:23:32.143Z,1009.56
2019-04-27T10:24:32.124Z,1009.54
2019-04-27T10:25:32.111Z,1009.57
2019-04-27T10:26:31.990Z,1009.53
2019-04-27T10:27:32.012Z,1009.51
2019-04-27T10:28:31.736Z,1009.51
2019-04-27T10:29:31.672Z,1009.52
2019-04-27T10:30:31.589Z,1009.60
2019-04-27T10:31:31.493Z,1009.66
2019-04-27T10:32:31.409Z,1009.57
2019-04-27T10:33:31.339Z,1009.60
2019-04-27T10:34:31.269Z,1009.53
2019-04-27T10:35:31.171Z,1009.56
2019-04-27T10:36:31.090Z,1009.51
2019-04-27T10:37:31.007Z,1009.56
2019-04-27T10:38:30.962Z,1009.54
2019-04-27T10:39:30.857Z,1009.51
2019-04-27T10:40:30.766Z,1009.52
2019-04-27T10:41:30.678Z,1009.52
2019-04-27T10:42:30.623Z,1009.46
2019-04-27T10:43:30.515Z,1009.49
2019-04-27T10:44:30.451Z,1009.46
2019-04-27T10:45:30.353Z,1009.51
2019-04-27T10:46:30.273Z,1009.54
2019-04-27T10:47:30.195Z,1009.53
2019-04-27T10:48:30.109Z,1009.59
2019-04-27T10:49:30.059Z,1009.69
2019-04-27T10:50:29.951Z,1009.71
2019-04-27T10:51:29.869Z,1009.67
2019-04-27T10:52:29.784Z,1009.66
2019-04-27T10:53:29.707Z,1009.70
2019-04-27T10:54:29.636Z,1009.65
2019-04-27T10:55:29.539Z,1009.70
2019-04-27T10:56:29.464Z,1009.64
2019-04-27T10:57:29.381Z,1009.58
2019-04-27T10:58:29.315Z,1009.51
2019-04-27T10:59:29.230Z,1009.57
2019-04-27T11:00:29.135Z,1009.61
2019-04-27T11:01:29.062Z,1009.62
2019-04-27T11:02:28.977Z,1009.64
2019-04-27T11:03:28.890Z,1009.65
2019-04-27T11:04:28.835Z,1009.56
2019-04-27T11:05:31.267Z,1009.51
2019-04-27T11:06:28.654Z,1009.46
2019-04-27T11:07:28.574Z,1009.50
2019-04-27T11:08:28.499Z,1009.47
2019-04-27T11:09:28.404Z,1009.49
2019-04-27T11:10:28.357Z,1009.55
2019-04-27T11:11:28.244Z,1009.56
2019-04-27T11:12:28.327Z,1009.58
2019-04-27T11:13:28.077Z,1009.55
2019-04-27T11:14:28.164Z,1009.55
2019-04-27T11:15:27.935Z,1009.58
2019-04-27T11:16:27.837Z,1009.66
2019-04-27T11:17:27.952Z,1009.68
2019-04-27T11:18:27.671Z,1009.74
2019-04-27T11:19:27.597Z,1009.74
2019-04-27T11:20:27.887Z,1009.75
2019-04-27T11:21:27.427Z,1009.78
2019-04-27T11:22:27.368Z,1009.73
2019-04-27T11:23:27.263Z,1009.85
2019-04-27T11:24:27.385Z,1009.93
2019-04-27T11:25:27.111Z,1009.94
2019-04-27T11:26:27.195Z,1009.88
2019-04-27T11:27:26.935Z,1009.83
2019-04-27T11:28:27.001Z,1009.78
2019-04-27T11:29:27.650Z,1009.77
2019-04-27T11:30:26.704Z,1009.70
2019-04-27T11:31:26.712Z,1009.67
2019-04-27T11:32:26.522Z,1009.68
2019-04-27T11:33:26.451Z,1009.64
2019-04-27T11:34:26.427Z,1009.73
2019-04-27T11:35:26.297Z,1009.72
2019-04-27T11:36:26.216Z,1009.74
2019-04-27T11:37:26.140Z,1009.77
2019-04-27T11:38:26.612Z,1009.78
2019-04-27T11:39:26.072Z,1009.77
2019-04-27T11:40:25.987Z,1009.75
2019-04-27T11:41:26.231Z,1009.75
2019-04-27T11:42:25.705Z,1009.68
2019-04-27T11:43:26.135Z,1009.72
2019-04-27T11:44:25.839Z,1009.74
2019-04-27T11:45:26.750Z,1009.81
2019-04-27T11:46:26.684Z,1009.73
2019-04-27T11:47:25.310Z,1009.71
2019-04-27T11:48:26.301Z,1009.78
2019-04-27T11:49:25.768Z,1009.87
2019-04-27T11:50:25.623Z,1009.88
2019-04-27T11:51:26.595Z,1009.85
2019-04-27T11:52:24.877Z,1009.83
2019-04-27T11:53:26.198Z,1009.80
2019-04-27T11:54:25.581Z,1009.81
2019-04-27T11:55:24.644Z,1009.92
2019-04-27T11:56:24.839Z,1009.82
2019-04-27T11:57:24.480Z,1009.90
2019-04-27T11:58:24.384Z,1009.93
2019-04-27T11:59:24.348Z,1009.87
2019-04-27T12:00:24.235Z,1009.93
2019-04-27T12:01:24.154Z,1009.95
2019-04-27T12:02:25.773Z,1010.00
2019-04-27T12:03:23.971Z,1010.08
2019-04-27T12:04:24.080Z,1010.15